ETO MAGNETIC SP Z O O
ETO MAGNETIC SP Z O O's Shipments Over Time
Supply Ratings
Shipment Reliability and Frequency Volume of Goods
Avg. Shipments per Month: 4.75 Average TEU per month: 6.54
Active Months: 12 Average TEU per Shipment: 1.38
Shipment Frequency Std. Dev.: 2.18
Shipments By Companies
Company Name Shipments
BENDIX COMMERCIAL VEHICLE SYSTEMS 225 shipments
WABCO 98 shipments
BOSCH REXROTH CORP 21 shipments
WABCO USA LLC 17 shipments
Shipments By HS Code
HS Code Shipments
841590 Air conditioning machines; with motor driven fan and elements for temperature control, parts thereof 195 shipments
981800 102 shipments
401693 Rubber; vulcanised (other than hard rubber), gaskets, washers and other seals, of non-cellular rubber 16 shipments
848120.0 Taps, cocks, valves and similar appliances for pipes, boiler shells, tanks, vats or the like, including pressure-reducing valves and thermostatically controlled valves 14 shipments
840999 Engines; parts for internal combustion piston engines (excluding spark-ignition) 12 shipments
841590.0 Air conditioning machines; comprising a motor driven fan and elements for changing the temperature and humidity, including those machines in which the humidity cannot be separately regulated 12 shipments
841581.0 Air conditioning machines; comprising a motor driven fan and elements for changing the temperature and humidity, including those machines in which the humidity cannot be separately regulated 4 shipments
848120 Valves; for oleohydraulic or pneumatic transmissions 3 shipments
292423 Cyclic amides (including cyclic carbamates) and their derivatives; 2-acetamidobenzoic acid (N-acetylanthranillic acid) and its salts 1 shipments
850520.0 Electro-magnets; permanent magnets, intended permanent magnets; electro-magnetic, permanent magnet chucks, clamps, similar; electromagnetic couplings, clutches, brakes; electro-magnetic lifting heads 1 shipments
850530.0 Electro-magnets; permanent magnets, intended permanent magnets; electro-magnetic, permanent magnet chucks, clamps, similar; electromagnetic couplings, clutches, brakes; electro-magnetic lifting heads 1 shipments
to show market analysis.
Similar Suppliers
to see more.
Latest Shipments
Arrival Date Bill Of Lading Consignee Weight HS Code Description
2026-03-18 TCQVS00277072 BENDIX COMMERCIAL VEHICLE SYSTEMS 1629.0 kg 848120.0 SOLENOID VALVE
2026-03-11 TCQVS00276550 BENDIX COMMERCIAL VEHICLE SYSTEMS 1086.0 kg 848120.0 SOLENOID VALVE
2026-03-04 TCQVS00275936 BENDIX COMMERCIAL VEHICLE SYSTEMS 543.0 kg 848120.0 SOLENOID VALVE
2026-03-04 TCQVS00276340 BENDIX COMMERCIAL VEHICLE SYSTEMS 1086.0 kg 848120.0 SOLENOID VALVE FOR VEHICLES
2026-03-02 MLCWHAMH10010229 WABCO USA LLC 812.0 kg 841581.0 VALVE ATC / SOLENOID ATC VALVE VOLT BAYONET / SOLENOID VALVE
2026-02-12 TCQVS00275368 BENDIX COMMERCIAL VEHICLE SYSTEMS 1086.0 kg 848120.0 SOLENOID VALVE
2026-02-12 TCQVS00275640 BENDIX COMMERCIAL VEHICLE SYSTEMS 543.0 kg 848120.0 SOLENOID VALVE
2026-02-12 TCQVS00275369 BENDIX COMMERCIAL VEHICLE SYSTEMS 543.0 kg 848120.0 SOLENOID VALVE
2026-02-12 TCQVS00275573 BENDIX COMMERCIAL VEHICLE SYSTEMS 543.0 kg 841581.0 VALVE
2026-02-10 MLCWHAMH10009935 WABCO USA LLC 83.0 kg 848120.0 VALVE / SOLENOID
2026-02-06 TCQVS00274844 BENDIX COMMERCIAL VEHICLE SYSTEMS 543.0 kg 848120.0 SOLENOID VALVE
2026-01-08 TCQVS00273998 BENDIX COMMERCIAL VEHICLE SYSTEMS 1086.0 kg 848120.0 SOLENOID VALVE
2026-01-08 TCQVS00274147 BENDIX COMMERCIAL VEHICLE SYSTEMS 1086.0 kg 848120.0 SOLENOID VALVE
2026-01-03 MLCWHAMH10009176 WABCO USA LLC 967.0 kg 841581.0 SOLENOID VALVE ATC VALVE
2025-12-27 MLCWHAMH10009027 WABCO USA LLC 122.0 kg 848120.0 VALVE ATC, SOLENOID
2025-12-10 TCQVS00273309 BENDIX COMMERCIAL VEHICLE SYSTEMS 534.0 kg 850530.0 ELECTROMAGNETS AND ELECTROMAGNETIC LIFTING HEADS, AND THEIR PARTS
2025-11-25 TCQVS00272418 BENDIX COMMERCIAL VEHICLE SYSTEMS 543.0 kg 848120.0 SOLENOID VALVE
2025-11-11 TCQVS00272051 BENDIX COMMERCIAL VEHICLE SYSTEMS 543.0 kg 850520.0 ELECTROMAGNETIC GOODS
2025-11-10 MLCWHAMH10008079 WABCO USA LLC 23.0 kg 848120.0 SOLENOID VALVE
2025-11-10 MLCWHAMH10008185 WABCO USA LLC 809.0 kg 841581.0 VALVE ATC SOLENOID ATC VALVE
2025-10-08 TCQVS00270779 BENDIX COMMERCIAL VEHICLE SYSTEMS 543.0 kg 841590.0 AUTOMOTIVE PARTS
2025-10-06 TCQVS00270669 BENDIX COMMERCIAL VEHICLE SYSTEMS 543.0 kg 841590.0 AUTOMOTIVE PARTS
2025-10-06 TCQVS00270477 BENDIX COMMERCIAL VEHICLE SYSTEMS 543.0 kg 841590.0 AUTOMOTIVE PARTS
2025-09-29 MLCWHAMH10007006 WABCO USA LLC 328.0 kg 841590.0 AUTOMOTIVE PARTS
2025-09-23 TCQVS00270382 BENDIX COMMERCIAL VEHICLE SYSTEMS 543.0 kg 841590.0 AUTOMOTIVE PARTS
2025-09-16 TCQVS00270173 BENDIX COMMERCIAL VEHICLE SYSTEMS 1086.0 kg 841590.0 AUTOMOTIVE PARTS
2025-09-16 TCQVS00269910 BENDIX COMMERCIAL VEHICLE SYSTEMS 1086.0 kg 841590.0 AUTOMOTIVE PARTS
2025-09-13 TCQVS00269502 BENDIX COMMERCIAL VEHICLE SYSTEMS 989.0 kg 841590.0 AUTOMOTIVE PARTS
2025-09-13 TCQVS00269501 BENDIX COMMERCIAL VEHICLE SYSTEMS 1086.0 kg 841590.0 AUTOMOTIVE PARTS
2025-09-09 MLCWHAMH10006336 WABCO USA LLC 31.0 kg 841590.0 AUTOMOTIVE PARTS
2025-09-06 MLCWHAMH10006489 WABCO USA LLC 102.0 kg 841590.0 AUTOMOTIVE PARTS
2025-08-24 MLCWHAMH10006054 WABCO USA LLC 414.0 kg 841590.0 AUTOMOTIVE PARTS
2025-08-18 MLCWHAMH10005677 WABCO USA LLC 415.0 kg 841590 AUTOMOTIVE PARTS
2025-08-16 MLCWHAMH10005896 WABCO USA LLC 368.0 kg 841590 AUTOMOTIVE PARTS
2025-07-30 TCQVS00267349 BENDIX COMMERCIAL VEHICLE SYSTEMS 1086.0 kg 841590 AUTOMOTIVE PARTS
2025-07-29 TCQVS00266649 BENDIX COMMERCIAL VEHICLE SYSTEMS 2172.0 kg 841590 AUTOMOTIVE PARTS
2025-07-29 TCQVS00266955 BENDIX COMMERCIAL VEHICLE SYSTEMS 1629.0 kg 841590 AUTOMOTIVE PARTS
2025-07-29 TCQVS00266901 BENDIX COMMERCIAL VEHICLE SYSTEMS 543.0 kg 841590 AUTOMOTIVE PARTS
2025-07-26 MLCWHAMH10005265 WABCO USA LLC 380.0 kg 841590 AUTOMOTIVE PARTS
2025-07-19 MLCWHAMH10005070 WABCO USA LLC 470.0 kg 848120 SOLENOID VALVES
2025-07-12 MLCWHAMH10004867 WABCO USA LLC 158.0 kg 848120 SOLENOID
2025-07-08 TCQVS00265926 BENDIX COMMERCIAL VEHICLE SYSTEMS 1086.0 kg 841590 AUTOMOTIVE PARTS
2025-07-05 MLCWHAMH10004697 WABCO USA LLC 191.0 kg 292423 VALVE - 3/2 SOLENOID
2025-06-28 MLCWHAMH10004517 WABCO USA LLC 632.0 kg 848120 VALVE ATC, SOLENOID
2025-06-24 TCQVS00265372 BENDIX COMMERCIAL VEHICLE SYSTEMS 2172.0 kg 841590 AUTOMOTIVE PARTS
2025-06-24 TCQVS00265846 BENDIX COMMERCIAL VEHICLE SYSTEMS 1086.0 kg 841590 AUTOMOTIVE PARTS
2025-06-24 TCQVS00265762 BENDIX COMMERCIAL VEHICLE SYSTEMS 543.0 kg 841590 AUTOMOTIVE PARTS
2025-06-08 TCQVS00265074 BENDIX COMMERCIAL VEHICLE SYSTEMS 1086.0 kg 841590 AUTOMOTIVE PARTS
2025-05-27 TCQVS00264563 BENDIX COMMERCIAL VEHICLE SYSTEMS 1629.0 kg 841590 AUTOMOTIVE PARTS
2025-05-27 TCQVS00264118 BENDIX COMMERCIAL VEHICLE SYSTEMS 1629.0 kg 841590 AUTOMOTIVE PARTS
Contact information Request
to request contact information.
Other address
KWIATKOWSKIEGO 7
EUGENIUSZA KWIATKOWSKIEGO 7
UL E KWIATKOWSKIEGO 7
UL EUGENIUSZA KWIATKOWSKIEGO 7
UL EUGENIUSZA KWIATKOWSKIEGO 7 POLEN
UL EUGENIUSZA KWIATKOWSKIEGO 7 52-407 WROCLAW